Midkiff, Texas
Current Conditions -  °F | °C
As of 6:53 AM on Friday 19 Dec 2014 (Local Time) from KMAF Reporting Station
Haze Haze  
Wind Chill: 36°   Ceiling: 300
Heat Index: 40°   Visibility: 5mi
Dew Point: 38°   Wind: 6mph
Humidity: 93%   Direction: 100°E
Pressure: 30.13"   Gusts: NA
Location:  31.63°N, 101.84°W
Report Text: KMAF 191253Z 10005KT 5SM BR OVC003 04/03 A3013 RMK AO2 SLP189 T00440033
Loading
Personal Weather Stations






























Interactive Weather Map New forecast layout! Learn more

10-Day Weather Forecast

Advertisements
Track Severe Weather on mobile